Time;durP1;ratioP1;P1;durP2;ratioP2;P2;SDS_P1;SDS_P2;PMS_P1;PMS_P2;Temp;Humidity;BMP_temperature;BMP_pressure;BME280_temperature;BME280_humidity;BME280_pressure;Samples;Min_cycle;Max_cycle;Signal;HPM_P1;HPM_P2
2023/12/28 00:00:07;;;;;;;25.10;15.13;;;6.30;99.90;;;;;;5131823;27;20027;-76
2023/12/28 00:02:33;;;;;;;22.60;15.15;;;6.30;99.90;;;;;;5137217;27;20011;-76
2023/12/28 00:04:59;;;;;;;24.15;15.55;;;6.20;99.90;;;;;;5139175;27;20027;-75
2023/12/28 00:07:24;;;;;;;21.58;15.98;;;6.30;99.90;;;;;;5117543;27;20034;-75
2023/12/28 00:09:50;;;;;;;24.70;15.27;;;6.30;99.90;;;;;;5139181;27;20035;-75
2023/12/28 00:12:16;;;;;;;21.35;13.80;;;6.20;99.90;;;;;;5139034;27;20083;-76
2023/12/28 00:14:41;;;;;;;21.50;14.07;;;6.20;99.90;;;;;;5120510;27;20031;-76
2023/12/28 00:17:07;;;;;;;32.72;14.93;;;6.20;99.90;;;;;;5138476;27;20033;-77
2023/12/28 00:19:33;;;;;;;23.77;14.43;;;6.10;99.90;;;;;;5137752;27;20023;-77
2023/12/28 00:21:58;;;;;;;23.55;14.07;;;6.10;99.90;;;;;;5138606;27;20059;-76
2023/12/28 00:24:24;;;;;;;23.35;14.15;;;6.20;99.90;;;;;;5138695;27;20038;-76
2023/12/28 00:26:49;;;;;;;24.58;12.77;;;6.30;99.90;;;;;;5138728;27;20491;-76
2023/12/28 00:29:15;;;;;;;24.05;14.60;;;6.20;99.90;;;;;;5119931;27;20502;-76
2023/12/28 00:31:41;;;;;;;25.83;13.63;;;6.30;99.90;;;;;;5138361;27;20027;-76
2023/12/28 00:34:06;;;;;;;21.90;12.50;;;6.30;99.90;;;;;;5138355;27;20019;-76
2023/12/28 00:36:32;;;;;;;22.98;13.70;;;6.40;99.90;;;;;;5138714;27;20031;-77
2023/12/28 00:38:58;;;;;;;25.27;14.05;;;6.60;99.90;;;;;;5138503;27;20094;-76
2023/12/28 00:41:23;;;;;;;26.10;14.05;;;6.50;99.90;;;;;;5119509;27;20065;-76
2023/12/28 00:43:49;;;;;;;22.23;13.55;;;6.60;99.90;;;;;;5138406;27;20090;-76
2023/12/28 00:46:14;;;;;;;23.10;13.82;;;6.70;99.90;;;;;;5138069;27;20057;-76
2023/12/28 00:48:40;;;;;;;23.02;13.93;;;6.70;99.90;;;;;;5116241;28;20016;-76
2023/12/28 00:51:06;;;;;;;24.33;14.60;;;6.60;99.90;;;;;;5117642;27;20031;-77
2023/12/28 00:53:31;;;;;;;21.67;14.20;;;6.80;99.90;;;;;;5137655;27;20150;-76
2023/12/28 00:55:57;;;;;;;26.95;14.80;;;7.00;99.90;;;;;;5137952;27;20027;-76
2023/12/28 00:58:23;;;;;;;29.02;15.18;;;7.00;99.90;;;;;;5137958;27;20465;-76
2023/12/28 01:00:48;;;;;;;29.15;14.80;;;7.00;99.90;;;;;;5138069;27;20516;-77
2023/12/28 01:03:14;;;;;;;30.25;15.00;;;6.90;99.90;;;;;;5137968;27;20038;-76
2023/12/28 01:05:40;;;;;;;27.33;14.60;;;6.90;99.90;;;;;;5138071;27;20068;-77
2023/12/28 01:08:05;;;;;;;27.83;15.23;;;6.90;99.90;;;;;;5137687;27;20442;-77
2023/12/28 01:10:31;;;;;;;26.70;16.23;;;7.00;99.90;;;;;;5137792;27;20031;-76
2023/12/28 01:12:57;;;;;;;23.77;14.65;;;7.10;99.90;;;;;;5137695;27;20023;-76
2023/12/28 01:15:22;;;;;;;28.58;15.52;;;7.10;99.90;;;;;;5115549;28;20027;-76
2023/12/28 01:17:48;;;;;;;34.58;15.13;;;7.20;99.90;;;;;;5115570;28;20074;-76
2023/12/28 01:20:14;;;;;;;28.38;15.18;;;7.20;99.90;;;;;;5135242;27;20031;-76
2023/12/28 01:22:39;;;;;;;27.48;16.75;;;7.20;99.90;;;;;;5118848;27;20027;-76
2023/12/28 01:25:05;;;;;;;27.23;14.65;;;7.20;99.90;;;;;;5137708;27;20019;-76
2023/12/28 01:27:31;;;;;;;28.98;16.40;;;7.10;99.90;;;;;;5137416;27;20099;-76
2023/12/28 01:29:57;;;;;;;28.45;16.00;;;7.00;99.90;;;;;;5137113;27;20024;-77
2023/12/28 01:32:22;;;;;;;24.00;14.27;;;7.00;99.90;;;;;;5137164;27;20015;-77
2023/12/28 01:34:48;;;;;;;28.67;15.45;;;6.90;99.90;;;;;;5115447;28;20030;-77
2023/12/28 01:37:13;;;;;;;31.63;15.90;;;6.80;99.90;;;;;;5135833;27;20130;-76
2023/12/28 01:39:39;;;;;;;21.58;14.32;;;6.80;99.90;;;;;;5137528;27;20062;-77
2023/12/28 01:42:05;;;;;;;24.98;14.18;;;6.70;99.90;;;;;;5137206;27;20042;-76
2023/12/28 01:44:31;;;;;;;26.77;16.08;;;6.60;99.90;;;;;;5118722;27;20106;-77
2023/12/28 01:46:57;;;;;;;26.42;15.02;;;6.70;99.90;;;;;;5134331;27;20411;-76
2023/12/28 01:49:23;;;;;;;25.52;14.88;;;6.60;99.90;;;;;;5115577;28;20027;-76
2023/12/28 01:51:49;;;;;;;22.30;14.35;;;6.50;99.90;;;;;;5113748;27;20511;-76
2023/12/28 01:54:16;;;;;;;54.17;32.30;;;6.50;99.90;;;;;;5115041;28;20044;-76
2023/12/28 01:56:43;;;;;;;99.50;42.67;;;6.40;99.90;;;;;;5132175;27;20373;-77
2023/12/28 01:59:09;;;;;;;366.35;131.07;;;6.40;99.90;;;;;;5136823;27;20102;-76
2023/12/28 02:01:34;;;;;;;633.75;250.52;;;6.30;99.90;;;;;;5136231;27;20055;-76
2023/12/28 02:04:01;;;;;;;721.85;270.27;;;6.40;99.90;;;;;;5137053;27;20110;-75
2023/12/28 02:06:27;;;;;;;609.88;232.23;;;6.30;99.90;;;;;;5136522;27;20024;-77
2023/12/28 02:08:52;;;;;;;738.03;288.45;;;6.30;99.90;;;;;;5136813;27;20027;-77
2023/12/28 02:11:19;;;;;;;1099.90;457.58;;;6.20;99.90;;;;;;5118471;27;20019;-77
2023/12/28 02:13:46;;;;;;;344.10;120.68;;;6.20;99.90;;;;;;5136714;27;20031;-77
2023/12/28 02:16:25;;;;;;;656.75;276.02;;;6.20;99.90;;;;;;5136172;27;20079;-77
2023/12/28 02:18:53;;;;;;;707.50;309.50;;;6.10;99.90;;;;;;5114820;28;20027;-77
2023/12/28 02:21:20;;;;;;;464.67;172.40;;;6.00;99.90;;;;;;5134888;27;20419;-77
2023/12/28 02:23:49;;;;;;;287.23;101.32;;;6.00;99.90;;;;;;5136281;27;20046;-77
2023/12/28 02:26:19;;;;;;;112.95;44.35;;;6.00;99.90;;;;;;5118202;27;20027;-78
2023/12/28 02:28:47;;;;;;;155.40;78.20;;;5.90;99.90;;;;;;5136358;27;20389;-77
2023/12/28 02:31:21;;;;;;;152.32;70.43;;;5.90;99.90;;;;;;5136124;28;20042;-77
2023/12/28 02:34:00;;;;;;;203.50;91.72;;;6.10;99.90;;;;;;5117847;28;20037;-77
2023/12/28 02:36:27;;;;;;;377.88;196.10;;;6.10;99.90;;;;;;5118044;28;20107;-77
2023/12/28 02:38:56;;;;;;;159.27;75.13;;;6.00;99.90;;;;;;5118501;28;20035;-77
2023/12/28 02:41:22;;;;;;;151.25;68.47;;;6.00;99.90;;;;;;5127914;27;20027;-77
2023/12/28 02:43:48;;;;;;;88.28;46.05;;;6.00;99.90;;;;;;5136135;27;20027;-77
2023/12/28 02:46:14;;;;;;;44.67;24.17;;;6.00;99.90;;;;;;5121399;27;20056;-78
2023/12/28 02:48:40;;;;;;;699.83;418.92;;;6.10;99.90;;;;;;5122253;27;20027;-77
2023/12/28 02:51:06;;;;;;;256.60;122.60;;;6.10;99.90;;;;;;5120261;27;20087;-77
2023/12/28 02:53:31;;;;;;;82.60;45.47;;;6.10;99.90;;;;;;5129728;27;20062;-77
2023/12/28 02:55:57;;;;;;;213.95;107.10;;;6.00;99.90;;;;;;5119026;27;20019;-77
2023/12/28 02:58:22;;;;;;;306.40;153.38;;;5.90;99.90;;;;;;5121923;27;20023;-77
2023/12/28 03:00:48;;;;;;;370.38;188.02;;;5.90;99.90;;;;;;5120059;27;20008;-77
2023/12/28 03:03:14;;;;;;;88.50;44.78;;;5.80;99.90;;;;;;5120420;27;20023;-77
2023/12/28 03:05:41;;;;;;;505.95;276.58;;;5.80;99.90;;;;;;5139607;27;20015;-76
2023/12/28 03:08:07;;;;;;;314.02;156.57;;;5.70;99.90;;;;;;5139663;27;20031;-76
2023/12/28 03:10:32;;;;;;;155.15;71.53;;;5.70;99.90;;;;;;5121428;27;20027;-76
2023/12/28 03:12:58;;;;;;;213.45;109.88;;;5.80;99.90;;;;;;5120910;27;20479;-76
2023/12/28 03:15:24;;;;;;;48.72;25.80;;;5.80;99.90;;;;;;5121230;27;20114;-76
2023/12/28 03:17:49;;;;;;;109.32;56.08;;;5.90;99.90;;;;;;5120440;27;20023;-76
2023/12/28 03:20:15;;;;;;;68.28;36.03;;;6.00;99.90;;;;;;5139009;27;20015;-76
2023/12/28 03:22:41;;;;;;;53.28;29.08;;;6.10;99.90;;;;;;5120435;27;20102;-76
2023/12/28 03:25:07;;;;;;;209.57;104.82;;;6.10;99.90;;;;;;5136985;27;20022;-76
2023/12/28 03:27:33;;;;;;;290.90;146.13;;;6.10;99.90;;;;;;5121126;27;20031;-76
2023/12/28 03:29:58;;;;;;;92.93;47.63;;;6.20;99.90;;;;;;5119097;27;20027;-76
2023/12/28 03:32:24;;;;;;;314.98;152.57;;;6.20;99.90;;;;;;5139428;27;20084;-76
2023/12/28 03:34:50;;;;;;;196.73;96.05;;;6.20;99.90;;;;;;5121102;27;20080;-76
2023/12/28 03:37:15;;;;;;;149.32;74.53;;;6.10;99.90;;;;;;5139368;27;20023;-76
2023/12/28 03:39:41;;;;;;;203.07;103.05;;;6.00;99.90;;;;;;5131903;27;20028;-76
2023/12/28 03:42:07;;;;;;;340.30;150.23;;;5.90;99.90;;;;;;5129567;27;20027;-76
2023/12/28 03:44:32;;;;;;;252.15;115.30;;;5.80;99.90;;;;;;5138327;27;20019;-77
2023/12/28 03:46:58;;;;;;;472.65;239.32;;;5.80;99.90;;;;;;5137502;27;20048;-76
2023/12/28 03:49:24;;;;;;;446.08;199.23;;;5.80;99.90;;;;;;5118156;27;20026;-76
2023/12/28 03:51:50;;;;;;;155.73;71.30;;;5.80;99.90;;;;;;5110649;27;20062;-77
2023/12/28 03:54:17;;;;;;;150.55;67.88;;;5.70;99.90;;;;;;5138122;27;20043;-77
2023/12/28 03:56:43;;;;;;;335.42;144.60;;;5.60;99.90;;;;;;5116876;28;20043;-76
2023/12/28 03:59:09;;;;;;;162.07;74.45;;;5.50;99.90;;;;;;5136458;27;20073;-76
2023/12/28 04:01:35;;;;;;;229.63;108.80;;;5.50;99.90;;;;;;5139033;27;20118;-77
2023/12/28 04:04:00;;;;;;;235.57;115.30;;;5.70;99.90;;;;;;5119760;27;20055;-77
2023/12/28 04:06:26;;;;;;;284.08;129.90;;;5.70;99.90;;;;;;5139056;27;20375;-76
2023/12/28 04:08:52;;;;;;;304.58;132.43;;;5.80;99.90;;;;;;5117057;28;20099;-77
2023/12/28 04:11:18;;;;;;;159.13;80.00;;;5.70;99.90;;;;;;5136959;27;20027;-76
2023/12/28 04:13:43;;;;;;;204.30;106.78;;;5.60;99.90;;;;;;5138963;27;20513;-76
2023/12/28 04:16:15;;;;;;;75.30;40.22;;;5.60;99.90;;;;;;5138400;27;20024;-77
2023/12/28 04:18:41;;;;;;;119.10;56.17;;;5.70;99.90;;;;;;5138860;27;20106;-76
2023/12/28 04:21:11;;;;;;;437.48;215.63;;;5.70;99.90;;;;;;5120324;27;20042;-77
2023/12/28 04:23:38;;;;;;;86.68;41.65;;;5.70;99.90;;;;;;5138649;27;20440;-77
2023/12/28 04:26:04;;;;;;;116.25;58.75;;;5.80;99.90;;;;;;5138699;27;20038;-77
2023/12/28 04:28:30;;;;;;;285.35;108.45;;;5.80;99.90;;;;;;5120173;27;20019;-77
2023/12/28 04:30:56;;;;;;;282.25;95.85;;;5.80;99.90;;;;;;5119707;27;20026;-77
2023/12/28 04:33:22;;;;;;;192.98;75.70;;;5.80;99.90;;;;;;5138647;27;20114;-76
2023/12/28 04:35:47;;;;;;;161.77;73.15;;;5.80;99.90;;;;;;5119842;27;20050;-77
2023/12/28 04:38:13;;;;;;;162.40;75.70;;;5.80;99.90;;;;;;5138383;27;20023;-77
2023/12/28 04:40:39;;;;;;;235.13;98.88;;;5.80;99.90;;;;;;5138474;27;20066;-77
2023/12/28 04:43:05;;;;;;;72.78;34.15;;;5.80;99.90;;;;;;5116356;28;20648;-77
2023/12/28 04:45:30;;;;;;;112.35;50.15;;;6.00;99.90;;;;;;5117718;27;20023;-77
2023/12/28 04:47:56;;;;;;;39.72;22.58;;;6.20;99.90;;;;;;5138149;27;20048;-77
2023/12/28 04:50:22;;;;;;;78.55;40.40;;;6.60;99.90;;;;;;5138267;27;20023;-76
2023/12/28 04:52:47;;;;;;;36.60;15.98;;;6.90;99.90;;;;;;5138192;27;20030;-78
2023/12/28 04:55:13;;;;;;;121.13;59.85;;;7.10;99.90;;;;;;5115874;28;20410;-77
2023/12/28 04:57:41;;;;;;;212.05;90.18;;;7.30;99.90;;;;;;5136065;27;20065;-76
2023/12/28 05:00:08;;;;;;;50.13;25.25;;;7.40;99.90;;;;;;5119625;27;20027;-77
2023/12/28 05:02:34;;;;;;;73.57;33.13;;;7.40;99.90;;;;;;5137881;27;20379;-77
2023/12/28 05:04:59;;;;;;;117.80;49.60;;;7.50;99.90;;;;;;5115520;28;20030;-77
2023/12/28 05:07:25;;;;;;;78.38;40.00;;;7.70;99.90;;;;;;5136357;27;20027;-77
2023/12/28 05:09:51;;;;;;;59.05;33.80;;;7.80;99.90;;;;;;5116259;28;20030;-79
2023/12/28 05:12:17;;;;;;;39.58;22.73;;;7.80;99.90;;;;;;5114348;28;20503;-79
2023/12/28 05:14:42;;;;;;;28.02;16.60;;;7.90;99.90;;;;;;5137999;27;20039;-82
2023/12/28 05:17:08;;;;;;;36.17;17.30;;;8.10;99.90;;;;;;5137394;27;20068;-77
2023/12/28 05:19:34;;;;;;;24.13;15.05;;;8.10;99.90;;;;;;5137702;27;20554;-76
2023/12/28 05:22:03;;;;;;;26.98;14.13;;;8.20;99.90;;;;;;5137493;27;20523;-77
2023/12/28 05:24:29;;;;;;;28.52;14.30;;;8.20;99.90;;;;;;5110243;27;20038;-80
2023/12/28 05:26:55;;;;;;;26.10;15.35;;;8.20;99.90;;;;;;5137824;27;20035;-83
2023/12/28 05:29:20;;;;;;;31.27;14.32;;;8.20;99.90;;;;;;5110443;27;20023;-78
2023/12/28 05:31:46;;;;;;;37.92;15.52;;;8.20;99.90;;;;;;5137437;27;20031;-81
2023/12/28 05:34:12;;;;;;;26.67;14.45;;;8.20;99.90;;;;;;5115689;28;20069;-82
2023/12/28 05:36:37;;;;;;;26.88;14.20;;;8.30;99.90;;;;;;5116679;27;20095;-81
2023/12/28 05:39:04;;;;;;;23.08;12.30;;;8.40;99.90;;;;;;5118936;27;20019;-78
2023/12/28 05:41:29;;;;;;;32.33;13.35;;;8.40;99.90;;;;;;5137208;27;20027;-79
2023/12/28 05:43:55;;;;;;;21.27;11.73;;;8.40;99.90;;;;;;5137242;27;20155;-77
2023/12/28 05:46:21;;;;;;;24.83;12.55;;;8.40;99.90;;;;;;5136872;27;20030;-80
2023/12/28 05:48:47;;;;;;;24.48;12.60;;;8.40;99.90;;;;;;5115291;28;20027;-76
2023/12/28 05:51:13;;;;;;;24.55;12.07;;;8.40;99.90;;;;;;5135841;27;20050;-78
2023/12/28 05:53:39;;;;;;;20.88;12.82;;;8.40;99.90;;;;;;5118759;27;20034;-81
2023/12/28 05:56:04;;;;;;;23.02;11.27;;;8.50;99.90;;;;;;5136645;27;20023;-77
2023/12/28 05:58:30;;;;;;;17.73;11.45;;;8.40;99.90;;;;;;5115308;28;20051;-78
2023/12/28 06:00:56;;;;;;;24.95;11.65;;;8.50;99.90;;;;;;5135508;27;20038;-78
2023/12/28 06:03:21;;;;;;;24.25;12.70;;;8.50;99.90;;;;;;5118459;27;20117;-78
2023/12/28 06:05:47;;;;;;;20.75;11.77;;;8.40;99.90;;;;;;5137028;27;20090;-77
2023/12/28 06:08:13;;;;;;;20.48;11.85;;;8.50;99.90;;;;;;5118021;27;20023;-78
2023/12/28 06:10:38;;;;;;;21.60;11.73;;;8.50;99.90;;;;;;5114861;28;20106;-78
2023/12/28 06:13:04;;;;;;;18.55;11.90;;;8.50;99.90;;;;;;5136350;27;20160;-80
2023/12/28 06:15:30;;;;;;;15.27;10.32;;;8.40;99.90;;;;;;5114267;28;20028;-79
2023/12/28 06:17:55;;;;;;;16.55;11.13;;;8.50;99.90;;;;;;5135828;27;20037;-80
2023/12/28 06:20:21;;;;;;;20.60;11.82;;;8.50;99.90;;;;;;5114765;28;20024;-81
2023/12/28 06:22:48;;;;;;;22.60;11.55;;;8.40;99.90;;;;;;5136139;27;20027;-77
2023/12/28 06:25:14;;;;;;;22.77;11.77;;;8.50;99.90;;;;;;5118174;28;20106;-78
2023/12/28 06:27:40;;;;;;;17.30;11.85;;;8.40;99.90;;;;;;5117841;28;20059;-78
2023/12/28 06:30:06;;;;;;;21.33;12.70;;;8.50;99.90;;;;;;5117773;28;20108;-78
2023/12/28 06:32:32;;;;;;;25.77;11.20;;;8.60;99.90;;;;;;5136511;28;20037;-81
2023/12/28 06:34:57;;;;;;;18.45;12.18;;;8.60;99.90;;;;;;5136332;28;20027;-77
2023/12/28 06:37:23;;;;;;;18.83;11.25;;;8.60;99.90;;;;;;5128065;28;20376;-82
2023/12/28 06:39:49;;;;;;;13.80;11.82;;;8.60;99.90;;;;;;5136463;28;20487;-78
2023/12/28 06:42:15;;;;;;;17.55;10.40;;;8.60;99.90;;;;;;5136255;28;20055;-80
2023/12/28 06:44:40;;;;;;;16.63;11.35;;;8.60;99.90;;;;;;5117790;28;20027;-78
2023/12/28 06:47:06;;;;;;;18.83;11.93;;;8.70;99.90;;;;;;5136007;28;20024;-77
2023/12/28 06:49:32;;;;;;;13.80;11.52;;;8.70;99.90;;;;;;5117921;28;20084;-80
2023/12/28 06:51:57;;;;;;;18.88;10.65;;;8.70;99.90;;;;;;5117536;28;20031;-77
2023/12/28 06:54:24;;;;;;;22.73;10.50;;;8.80;99.90;;;;;;5117713;28;20043;-78
2023/12/28 06:56:51;;;;;;;15.52;10.25;;;8.80;99.90;;;;;;5135896;28;20110;-82
2023/12/28 06:59:17;;;;;;;14.77;10.35;;;8.80;99.90;;;;;;5113746;28;20031;-78
2023/12/28 07:01:45;;;;;;;17.23;10.80;;;8.80;99.90;;;;;;5104691;28;20027;-77
2023/12/28 07:04:12;;;;;;;16.50;9.93;;;8.80;99.90;;;;;;5117656;28;20106;-80
2023/12/28 07:06:37;;;;;;;15.82;10.57;;;8.90;99.90;;;;;;5113845;28;20034;-76
2023/12/28 07:09:04;;;;;;;14.38;9.23;;;8.90;99.90;;;;;;5136168;28;20027;-80
2023/12/28 07:11:30;;;;;;;14.85;10.57;;;8.90;99.90;;;;;;5117426;28;20034;-77
2023/12/28 07:13:55;;;;;;;11.85;9.63;;;9.00;99.90;;;;;;5136205;28;20023;-78
2023/12/28 07:16:21;;;;;;;16.90;7.75;;;9.00;99.90;;;;;;5117042;28;20031;-76
2023/12/28 07:18:47;;;;;;;10.73;7.97;;;9.00;99.90;;;;;;5136156;28;20103;-78
2023/12/28 07:21:12;;;;;;;13.98;8.50;;;9.10;99.90;;;;;;5117482;28;20376;-76
2023/12/28 07:23:38;;;;;;;12.98;8.27;;;9.10;99.90;;;;;;5135928;28;20479;-76
2023/12/28 07:26:04;;;;;;;14.00;9.52;;;9.10;99.90;;;;;;5136024;28;20030;-78
2023/12/28 07:28:30;;;;;;;9.75;8.25;;;9.10;99.90;;;;;;5138210;27;20116;-80
2023/12/28 07:30:56;;;;;;;11.68;8.60;;;9.10;99.90;;;;;;5120876;27;20027;-78
2023/12/28 07:33:21;;;;;;;14.70;8.18;;;9.10;99.90;;;;;;5121129;27;20499;-77
2023/12/28 07:35:47;;;;;;;10.68;8.68;;;9.20;99.90;;;;;;5121126;27;20052;-76
2023/12/28 07:38:13;;;;;;;13.77;9.50;;;9.20;99.90;;;;;;5117802;28;20024;-78
2023/12/28 07:40:38;;;;;;;19.13;8.90;;;9.20;99.90;;;;;;5139224;27;20506;-76
2023/12/28 07:43:04;;;;;;;14.52;7.55;;;9.20;99.90;;;;;;5139649;27;20023;-78
2023/12/28 07:45:30;;;;;;;12.43;8.80;;;9.20;99.90;;;;;;5138994;27;20387;-76
2023/12/28 07:47:56;;;;;;;10.00;8.30;;;9.20;99.90;;;;;;5139504;27;20485;-78
2023/12/28 07:50:22;;;;;;;10.77;7.72;;;9.30;99.90;;;;;;5138960;27;20031;-75
2023/12/28 07:52:49;;;;;;;24.33;15.55;;;9.30;99.90;;;;;;5107476;28;20030;-77
2023/12/28 07:55:14;;;;;;;20.58;10.60;;;9.30;99.90;;;;;;5116869;27;20048;-75
2023/12/28 07:57:40;;;;;;;58.13;24.95;;;9.30;99.90;;;;;;5117914;27;20023;-76
2023/12/28 08:00:07;;;;;;;48.22;26.52;;;9.30;99.90;;;;;;5106392;27;20027;-85
2023/12/28 08:02:33;;;;;;;33.17;18.13;;;9.30;99.90;;;;;;5112251;28;20491;-82
2023/12/28 08:04:58;;;;;;;30.20;13.60;;;9.40;99.90;;;;;;5126925;27;20787;-79
2023/12/28 08:07:24;;;;;;;106.13;51.50;;;9.40;99.90;;;;;;5117278;27;20024;-81
2023/12/28 08:09:50;;;;;;;33.65;16.05;;;9.40;99.90;;;;;;5100422;28;20119;-82
2023/12/28 08:12:16;;;;;;;94.63;53.47;;;9.40;99.90;;;;;;5114933;27;20480;-81
2023/12/28 08:14:43;;;;;;;20.23;13.40;;;9.40;99.90;;;;;;5108087;27;20069;-81
2023/12/28 08:17:09;;;;;;;21.98;14.55;;;9.40;99.90;;;;;;5134175;27;20019;-88
2023/12/28 08:19:35;;;;;;;35.20;30.27;;;9.40;99.90;;;;;;5134495;27;20083;-82
2023/12/28 08:22:00;;;;;;;17.30;14.70;;;9.40;99.90;;;;;;5101187;28;20026;-89
2023/12/28 08:24:26;;;;;;;31.80;28.45;;;9.40;99.90;;;;;;5117745;27;20027;-79
2023/12/28 08:26:52;;;;;;;15.82;9.30;;;9.40;99.90;;;;;;5109784;27;20053;-84
2023/12/28 08:29:18;;;;;;;11.48;8.48;;;9.50;99.90;;;;;;5120262;27;20096;-78
2023/12/28 08:31:44;;;;;;;11.55;7.22;;;9.50;99.90;;;;;;5122862;27;20125;-85
2023/12/28 08:34:10;;;;;;;13.60;7.88;;;9.60;99.90;;;;;;5124440;27;20166;-82
2023/12/28 08:36:35;;;;;;;21.65;8.60;;;9.60;99.90;;;;;;5111634;28;20035;-81
2023/12/28 08:39:01;;;;;;;12.18;7.45;;;9.60;99.90;;;;;;5122214;27;20031;-82
2023/12/28 08:41:27;;;;;;;12.10;8.60;;;9.60;99.90;;;;;;5131168;27;20011;-80
2023/12/28 08:43:56;;;;;;;11.23;7.25;;;9.60;99.90;;;;;;5127138;27;20407;-82
2023/12/28 08:46:22;;;;;;;9.90;8.60;;;9.70;99.90;;;;;;5113989;27;20023;-79
2023/12/28 08:48:48;;;;;;;13.77;7.95;;;9.70;99.90;;;;;;5112369;27;20034;-83
2023/12/28 08:51:14;;;;;;;12.98;7.05;;;9.70;99.90;;;;;;5115470;27;20019;-82
2023/12/28 08:53:41;;;;;;;8.93;6.72;;;9.70;99.90;;;;;;5111725;27;20095;-80
2023/12/28 08:56:33;;;;;;;9.07;6.75;;;9.80;99.90;;;;;;5099944;27;20020;-84
2023/12/28 08:58:58;;;;;;;10.63;6.63;;;9.80;99.90;;;;;;5119552;27;20040;-79
2023/12/28 09:01:25;;;;;;;13.00;11.15;;;9.80;99.90;;;;;;5123424;27;20034;-78
2023/12/28 09:03:52;;;;;;;10.23;7.90;;;9.90;99.90;;;;;;5127521;27;20106;-85
2023/12/28 09:06:19;;;;;;;12.95;9.60;;;9.90;99.90;;;;;;5136724;27;20080;-81
2023/12/28 09:08:50;;;;;;;11.50;7.93;;;9.90;99.90;;;;;;5115776;27;20015;-87
2023/12/28 09:11:16;;;;;;;12.65;8.05;;;10.00;99.90;;;;;;5118201;27;20030;-82
2023/12/28 09:13:41;;;;;;;26.25;15.45;;;10.00;99.90;;;;;;5119213;27;20015;-82
2023/12/28 09:16:12;;;;;;;94.90;49.30;;;10.00;99.90;;;;;;5109142;27;20126;-80
2023/12/28 09:18:38;;;;;;;107.90;54.55;;;10.10;99.90;;;;;;5114904;27;20031;-81
2023/12/28 09:21:05;;;;;;;16.00;10.98;;;10.10;99.90;;;;;;5113511;27;20037;-84
2023/12/28 09:23:32;;;;;;;19.17;8.90;;;10.10;99.90;;;;;;5116552;27;20129;-83
2023/12/28 09:25:58;;;;;;;13.50;8.65;;;10.10;99.90;;;;;;5117839;27;20475;-83
2023/12/28 09:28:24;;;;;;;18.75;12.35;;;10.20;99.90;;;;;;5136872;27;20039;-86
2023/12/28 09:30:50;;;;;;;13.07;8.73;;;10.20;99.90;;;;;;5136392;27;20023;-85
2023/12/28 09:33:16;;;;;;;14.68;9.75;;;10.20;99.90;;;;;;5118155;27;20019;-83
2023/12/28 09:35:42;;;;;;;10.85;8.82;;;10.20;99.90;;;;;;5118970;27;20030;-81
2023/12/28 09:38:08;;;;;;;11.93;8.15;;;10.30;99.90;;;;;;5136681;27;20027;-78
2023/12/28 09:40:37;;;;;;;10.25;7.57;;;10.30;99.90;;;;;;5118537;28;20071;-83
2023/12/28 09:43:26;;;;;;;11.77;8.18;;;10.40;99.90;;;;;;5136268;27;20075;-80
2023/12/28 09:45:53;;;;;;;13.73;8.50;;;10.40;99.90;;;;;;5112131;27;20076;-86
2023/12/28 09:48:20;;;;;;;12.85;9.13;;;10.40;99.90;;;;;;5122947;27;20019;-84
2023/12/28 09:50:54;;;;;;;11.55;7.18;;;10.40;99.90;;;;;;5117696;27;20058;-81
2023/12/28 09:53:23;;;;;;;15.77;9.68;;;10.40;99.90;;;;;;5131395;27;20019;-80
2023/12/28 09:55:51;;;;;;;10.93;7.22;;;10.60;99.90;;;;;;5129214;27;20055;-82
2023/12/28 09:58:19;;;;;;;10.68;6.80;;;10.60;99.90;;;;;;5117221;27;20035;-80
2023/12/28 10:00:45;;;;;;;8.65;6.57;;;10.60;99.90;;;;;;5117262;27;20016;-80
2023/12/28 10:03:17;;;;;;;12.32;6.72;;;10.70;99.90;;;;;;5135784;27;20027;-79
2023/12/28 10:05:47;;;;;;;12.10;9.38;;;10.70;99.90;;;;;;5135447;27;20019;-78
2023/12/28 10:08:14;;;;;;;46.58;31.83;;;10.70;99.90;;;;;;5116839;27;20027;-76
2023/12/28 10:10:41;;;;;;;78.05;50.85;;;10.80;99.90;;;;;;5115924;27;20058;-75
2023/12/28 10:13:08;;;;;;;11.60;8.90;;;10.80;99.90;;;;;;5113281;28;20593;-77
2023/12/28 10:15:34;;;;;;;22.75;13.00;;;10.80;99.90;;;;;;5114637;27;20027;-76
2023/12/28 10:18:00;;;;;;;10.82;6.85;;;10.90;99.90;;;;;;5135429;27;20037;-76
2023/12/28 10:20:29;;;;;;;11.00;8.27;;;10.80;99.90;;;;;;5135553;27;20015;-76
2023/12/28 10:22:55;;;;;;;10.23;7.72;;;10.90;99.90;;;;;;5135529;27;20030;-76
2023/12/28 10:25:20;;;;;;;14.30;8.23;;;10.90;99.90;;;;;;5134468;27;20023;-77
2023/12/28 10:27:51;;;;;;;10.77;7.18;;;10.90;99.90;;;;;;5135467;27;20031;-75
2023/12/28 10:30:17;;;;;;;11.10;7.32;;;10.90;99.90;;;;;;5135618;27;20407;-78
2023/12/28 10:32:43;;;;;;;12.38;7.75;;;10.90;99.90;;;;;;5135281;28;20035;-77
2023/12/28 10:35:09;;;;;;;9.77;6.53;;;10.90;99.90;;;;;;5134763;28;20071;-79
2023/12/28 10:37:36;;;;;;;10.50;7.20;;;11.00;99.90;;;;;;5116582;28;20494;-76
2023/12/28 10:40:06;;;;;;;14.35;8.18;;;11.00;99.90;;;;;;5116786;28;20026;-75
2023/12/28 10:42:37;;;;;;;16.03;8.13;;;11.00;99.90;;;;;;5115898;28;20034;-76
2023/12/28 10:45:03;;;;;;;;;;;11.00;99.90;;;;;;5134706;28;20466;-78
2023/12/28 10:47:43;;;;;;;10.88;7.20;;;11.00;99.90;;;;;;5117053;28;19929;-75
2023/12/28 10:50:11;;;;;;;16.40;8.02;;;11.00;99.90;;;;;;5099725;28;20023;-77
2023/12/28 10:52:39;;;;;;;12.23;7.55;;;11.10;99.90;;;;;;5113910;28;20031;-78
2023/12/28 10:55:36;;;;;;;17.33;7.47;;;11.10;99.90;;;;;;5115598;28;21801;-78
2023/12/28 10:58:10;;;;;;;13.30;7.20;;;11.20;99.90;;;;;;5115934;28;20031;-78
2023/12/28 11:00:41;;;;;;;14.68;7.63;;;11.20;99.90;;;;;;5116831;28;20051;-79
2023/12/28 11:03:10;;;;;;;15.07;8.10;;;11.20;99.90;;;;;;5132162;27;20031;-77
2023/12/28 11:05:40;;;;;;;17.17;7.30;;;11.20;99.90;;;;;;5128432;27;20023;-81
2023/12/28 11:08:07;;;;;;;12.55;8.07;;;11.30;99.90;;;;;;5116238;27;20545;-81
2023/12/28 11:10:36;;;;;;;36.50;18.63;;;11.30;99.90;;;;;;5116257;27;20497;-80
2023/12/28 11:13:03;;;;;;;28.70;19.42;;;11.30;99.90;;;;;;5114575;27;20063;-80
2023/12/28 11:15:30;;;;;;;16.73;10.65;;;11.30;99.90;;;;;;5113182;27;20023;-78
2023/12/28 11:17:56;;;;;;;20.08;11.73;;;11.30;99.90;;;;;;5132321;27;20042;-78
2023/12/28 11:20:22;;;;;;;28.88;18.77;;;11.30;99.90;;;;;;5112513;27;20390;-81
2023/12/28 11:22:50;;;;;;;24.00;17.35;;;11.40;99.90;;;;;;5126228;27;20039;-81
2023/12/28 11:25:17;;;;;;;12.40;8.73;;;11.40;99.90;;;;;;5128532;27;20022;-82
2023/12/28 11:27:46;;;;;;;49.53;29.48;;;11.40;99.90;;;;;;5112702;27;20507;-81
2023/12/28 11:30:12;;;;;;;21.55;12.30;;;11.40;99.90;;;;;;5107752;27;20019;-83
2023/12/28 11:32:45;;;;;;;40.40;26.70;;;11.40;99.90;;;;;;5115270;27;20497;-80
2023/12/28 11:35:14;;;;;;;53.13;30.52;;;11.50;99.90;;;;;;5109354;27;20023;-80
2023/12/28 11:37:46;;;;;;;32.42;21.52;;;11.40;99.90;;;;;;5111849;27;20031;-79
2023/12/28 11:40:19;;;;;;;113.15;70.97;;;11.40;99.90;;;;;;5112735;27;20031;-83
2023/12/28 11:42:53;;;;;;;111.93;56.35;;;11.40;99.90;;;;;;5128006;27;20034;-82
2023/12/28 11:45:20;;;;;;;25.45;13.35;;;11.40;99.90;;;;;;5128457;27;20030;-83
2023/12/28 11:47:46;;;;;;;32.40;17.25;;;11.50;99.90;;;;;;5131301;27;20035;-81
2023/12/28 11:50:12;;;;;;;30.95;15.13;;;11.50;99.90;;;;;;5108189;27;20016;-83
2023/12/28 11:52:38;;;;;;;23.00;11.65;;;11.40;99.90;;;;;;5112630;27;20498;-81
2023/12/28 11:55:05;;;;;;;77.57;41.78;;;11.50;99.90;;;;;;5129482;27;20051;-82
2023/12/28 11:57:31;;;;;;;22.58;12.45;;;11.50;99.90;;;;;;5131464;27;20080;-84
2023/12/28 11:59:59;;;;;;;14.18;9.73;;;11.50;99.90;;;;;;5113916;27;20039;-78
2023/12/28 12:02:26;;;;;;;38.78;21.02;;;11.40;99.90;;;;;;5114386;27;20118;-81
2023/12/28 12:04:52;;;;;;;42.00;23.52;;;11.40;99.90;;;;;;5112328;27;20027;-81
2023/12/28 12:07:17;;;;;;;51.33;27.92;;;11.50;99.90;;;;;;5130937;27;20684;-82
2023/12/28 12:09:43;;;;;;;184.10;98.57;;;11.50;99.90;;;;;;5126619;27;20065;-85
2023/12/28 12:12:09;;;;;;;18.60;12.35;;;11.40;99.90;;;;;;5128710;27;20031;-83
2023/12/28 12:14:35;;;;;;;36.50;19.60;;;11.40;99.90;;;;;;5115143;27;20038;-80
2023/12/28 12:17:02;;;;;;;108.45;59.10;;;11.40;99.90;;;;;;5129916;27;20031;-81
2023/12/28 12:19:29;;;;;;;25.90;15.38;;;11.50;99.90;;;;;;5129051;27;20026;-81
2023/12/28 12:21:57;;;;;;;16.02;11.65;;;11.50;99.90;;;;;;5110978;27;20502;-80
2023/12/28 12:24:23;;;;;;;12.85;8.95;;;11.50;99.90;;;;;;5114017;27;20019;-80
2023/12/28 12:26:53;;;;;;;14.45;9.88;;;11.50;99.90;;;;;;5108167;27;20068;-81
2023/12/28 12:29:19;;;;;;;12.15;6.68;;;11.50;99.90;;;;;;5112554;27;20030;-81